CDT,Max TemperatureF,Mean TemperatureF,Min TemperatureF,Max Dew PointF,MeanDew PointF,Min DewpointF,Max Humidity, Mean Humidity, Min Humidity, Max Sea Level PressureIn, Mean Sea Level PressureIn, Min Sea Level PressureIn, Max VisibilityMiles, Mean VisibilityMiles, Min VisibilityMiles, Max Wind SpeedMPH, Mean Wind SpeedMPH, Max Gust SpeedMPH,PrecipitationIn, CloudCover, Events, WindDirDegrees
2012-9-1,85,78,72,77,74,71,100,85,66,30.07,30.02,29.90,10,9,2,37,12,44,0.30,6,Rain-Thunderstorm,186
2012-9-2,81,76,71,78,74,72,100,97,75,29.92,29.86,29.81,10,8,0,18,12,25,0.92,7,Fog-Rain,221
2012-9-3,81,76,71,79,75,71,100,99,84,29.87,29.84,29.81,10,7,0,16,8,20,0.55,7,Fog-Rain,251
2012-9-4,88,80,74,79,75,71,100,93,58,29.92,29.88,29.85,10,7,2,7,1,,0.01,6,Rain,323
2012-9-5,90,79,69,76,72,69,100,95,61,29.91,29.87,29.81,10,5,0,31,3,43,0.65,2,Fog-Rain-Thunderstorm,56
2012-9-6,89,78,66,76,68,66,100,94,55,30.03,29.94,29.89,10,4,0,26,3,40,0.21,4,Fog-Rain-Thunderstorm,252
2012-9-7,91,78,65,75,71,66,100,85,56,29.95,29.84,29.73,10,8,1,25,8,34,0.48,3,Rain-Thunderstorm,226
2012-9-8,73,66,58,72,65,51,100,94,45,30.01,29.84,29.75,10,8,2,16,8,21,0.35,7,Rain-Thunderstorm,268
2012-9-9,81,66,52,58,54,52,100,69,38,30.10,30.03,29.98,10,10,10,12,3,,0.00,0,,259
2012-9-10,79,66,55,58,55,52,100,70,40,30.20,30.14,30.09,10,10,10,9,3,,0.00,0,,57
2012-9-11,82,68,54,61,57,53,99,68,40,30.23,30.19,30.15,10,10,10,8,2,,0.00,0,,132
2012-9-12,82,72,63,63,60,52,100,70,38,30.28,30.22,30.19,10,10,10,12,3,,0.00,4,,153
2012-9-13,83,72,62,65,61,58,91,69,43,30.29,30.23,30.19,10,10,10,10,3,,0.00,3,,140
2012-9-14,81,72,62,70,65,60,100,82,58,30.25,30.23,30.21,10,8,0,16,3,24,0.65,4,Fog-Rain,29
2012-9-15,73,66,59,68,63,59,100,92,71,30.26,30.21,30.12,10,10,10,9,5,,0.01,4,,41
2012-9-16,77,69,62,69,65,61,100,94,68,30.14,30.09,30.01,10,8,2,8,3,,0.20,5,Rain,73
2012-9-17,72,69,66,72,68,66,100,99,93,30.01,29.91,29.76,10,6,1,10,4,,0.87,6,Rain-Thunderstorm,130
2012-9-18,69,61,53,68,60,41,100,87,39,30.09,29.82,29.73,10,9,5,10,5,20,0.02,5,Rain,284
2012-9-19,70,56,43,49,43,37,100,56,31,30.19,30.14,30.09,10,10,10,9,2,,0.00,0,Rain,100
2012-9-20,79,64,49,56,52,46,99,67,38,30.10,30.04,29.98,10,10,10,14,4,22,0.02,0,,213
2012-9-21,79,68,57,63,58,54,91,72,53,30.05,29.95,29.84,10,10,10,14,6,22,0.00,1,Rain,210
2012-9-22,78,68,53,59,47,35,96,52,26,30.19,30.03,29.88,10,10,10,17,9,23,0.00,0,,276
2012-9-23,68,54,40,44,38,34,91,54,30,30.29,30.24,30.19,10,6,2,9,2,,0.00,0,,31
2012-9-24,71,54,38,45,41,37,100,63,30,30.30,30.24,30.06,10,6,1,10,2,,0.00,0,,127
2012-9-25,82,70,57,69,59,46,88,68,58,30.07,30.03,29.97,10,10,10,18,8,26,0.00,2,,200
2012-9-26,84,74,64,68,62,52,100,73,56,30.18,30.10,30.03,10,9,2,23,10,32,0.22,3,Rain-Thunderstorm,222
2012-9-27,80,72,64,72,67,64,100,91,60,30.18,30.13,30.08,10,10,4,9,3,,0.19,4,Rain-Thunderstorm,244
2012-9-28,75,70,65,72,69,63,100,97,83,30.12,30.09,30.04,10,9,4,5,1,,0.11,5,Rain-Thunderstorm,265
2012-9-29,73,64,55,59,56,50,100,79,49,30.08,30.02,29.98,10,9,5,9,1,,0.00,1,,35
2012-9-30,73,62,50,62,55,50,100,81,47,29.97,29.91,29.81,10,7,2,5,1,,0.00,0,Rain,53